sensor_id;sensor_type;location;lat;lon;timestamp;temperature;humidity
9658;DHT22;4867;48.112;11.622;2022-12-18T00:01:39;-3.30;99.90
9658;DHT22;4867;48.112;11.622;2022-12-18T00:04:15;-3.40;99.90
9658;DHT22;4867;48.112;11.622;2022-12-18T00:06:46;-3.40;99.90
9658;DHT22;4867;48.112;11.622;2022-12-18T00:09:14;-3.40;99.90
9658;DHT22;4867;48.112;11.622;2022-12-18T00:11:42;-3.40;99.90
9658;DHT22;4867;48.112;11.622;2022-12-18T00:14:11;-3.30;99.90
9658;DHT22;4867;48.112;11.622;2022-12-18T00:16:38;-3.30;99.90
9658;DHT22;4867;48.112;11.622;2022-12-18T00:19:06;-3.30;99.90
9658;DHT22;4867;48.112;11.622;2022-12-18T00:21:34;-3.40;99.90
9658;DHT22;4867;48.112;11.622;2022-12-18T00:24:01;-3.40;99.90
9658;DHT22;4867;48.112;11.622;2022-12-18T00:26:31;-3.40;99.90
9658;DHT22;4867;48.112;11.622;2022-12-18T00:29:12;-3.30;99.90
9658;DHT22;4867;48.112;11.622;2022-12-18T00:31:43;-3.30;99.90
9658;DHT22;4867;48.112;11.622;2022-12-18T00:34:12;-3.30;99.90
9658;DHT22;4867;48.112;11.622;2022-12-18T00:36:40;-3.30;99.90
9658;DHT22;4867;48.112;11.622;2022-12-18T00:39:10;-3.30;99.90
9658;DHT22;4867;48.112;11.622;2022-12-18T00:41:37;-3.30;99.90
9658;DHT22;4867;48.112;11.622;2022-12-18T00:44:25;-3.30;99.90
9658;DHT22;4867;48.112;11.622;2022-12-18T00:46:52;-3.30;99.90
9658;DHT22;4867;48.112;11.622;2022-12-18T00:49:20;-3.20;99.90
9658;DHT22;4867;48.112;11.622;2022-12-18T00:51:48;-3.20;99.90
9658;DHT22;4867;48.112;11.622;2022-12-18T00:54:15;-3.20;99.90
9658;DHT22;4867;48.112;11.622;2022-12-18T00:56:43;-3.30;99.90
9658;DHT22;4867;48.112;11.622;2022-12-18T00:59:19;-3.30;99.90
9658;DHT22;4867;48.112;11.622;2022-12-18T01:01:47;-3.30;99.90
9658;DHT22;4867;48.112;11.622;2022-12-18T01:04:15;-3.30;99.90
9658;DHT22;4867;48.112;11.622;2022-12-18T01:06:45;-3.30;99.90
9658;DHT22;4867;48.112;11.622;2022-12-18T01:09:13;-3.20;99.90
9658;DHT22;4867;48.112;11.622;2022-12-18T01:11:40;-3.20;99.90
9658;DHT22;4867;48.112;11.622;2022-12-18T01:14:07;-3.20;99.90
9658;DHT22;4867;48.112;11.622;2022-12-18T01:16:37;-3.20;99.90
9658;DHT22;4867;48.112;11.622;2022-12-18T01:19:04;-3.30;99.90
9658;DHT22;4867;48.112;11.622;2022-12-18T01:21:32;-3.30;99.90
9658;DHT22;4867;48.112;11.622;2022-12-18T01:24:04;-3.30;99.90
9658;DHT22;4867;48.112;11.622;2022-12-18T01:26:31;-3.40;99.90
9658;DHT22;4867;48.112;11.622;2022-12-18T01:28:58;-3.30;99.90
9658;DHT22;4867;48.112;11.622;2022-12-18T01:31:28;-3.30;99.90
9658;DHT22;4867;48.112;11.622;2022-12-18T01:33:56;-3.40;99.90
9658;DHT22;4867;48.112;11.622;2022-12-18T01:36:27;-3.30;99.90
9658;DHT22;4867;48.112;11.622;2022-12-18T01:38:55;-3.30;99.90
9658;DHT22;4867;48.112;11.622;2022-12-18T01:41:25;-3.30;99.90
9658;DHT22;4867;48.112;11.622;2022-12-18T01:43:55;-3.40;99.90
9658;DHT22;4867;48.112;11.622;2022-12-18T01:46:27;-3.30;99.90
9658;DHT22;4867;48.112;11.622;2022-12-18T01:48:59;-3.30;99.90
9658;DHT22;4867;48.112;11.622;2022-12-18T01:51:30;-3.30;99.90
9658;DHT22;4867;48.112;11.622;2022-12-18T01:53:59;-3.30;99.90
9658;DHT22;4867;48.112;11.622;2022-12-18T01:56:26;-3.30;99.90
9658;DHT22;4867;48.112;11.622;2022-12-18T01:59:03;-3.30;99.90
9658;DHT22;4867;48.112;11.622;2022-12-18T02:01:32;-3.40;99.90
9658;DHT22;4867;48.112;11.622;2022-12-18T02:04:22;-3.40;99.90
9658;DHT22;4867;48.112;11.622;2022-12-18T02:07:16;-3.40;99.90
9658;DHT22;4867;48.112;11.622;2022-12-18T02:12:22;-3.40;99.90
9658;DHT22;4867;48.112;11.622;2022-12-18T02:15:05;-3.40;99.90
9658;DHT22;4867;48.112;11.622;2022-12-18T02:17:45;-3.30;99.90
9658;DHT22;4867;48.112;11.622;2022-12-18T02:26:36;-3.30;99.90
9658;DHT22;4867;48.112;11.622;2022-12-18T02:29:10;-3.30;99.90
9658;DHT22;4867;48.112;11.622;2022-12-18T02:31:43;-3.40;99.90
9658;DHT22;4867;48.112;11.622;2022-12-18T02:34:12;-3.40;99.90
9658;DHT22;4867;48.112;11.622;2022-12-18T02:37:02;-3.40;99.90
9658;DHT22;4867;48.112;11.622;2022-12-18T02:39:34;-3.30;99.90
9658;DHT22;4867;48.112;11.622;2022-12-18T02:42:04;-3.30;99.90
9658;DHT22;4867;48.112;11.622;2022-12-18T02:44:42;-3.40;99.90
9658;DHT22;4867;48.112;11.622;2022-12-18T02:47:16;-3.30;99.90
9658;DHT22;4867;48.112;11.622;2022-12-18T02:55:28;-3.30;99.90
9658;DHT22;4867;48.112;11.622;2022-12-18T03:04:04;-3.30;99.90
9658;DHT22;4867;48.112;11.622;2022-12-18T03:06:35;-3.20;99.90
9658;DHT22;4867;48.112;11.622;2022-12-18T03:09:13;-3.30;99.90
9658;DHT22;4867;48.112;11.622;2022-12-18T03:11:45;-3.30;99.90
9658;DHT22;4867;48.112;11.622;2022-12-18T03:14:34;-3.30;99.90
9658;DHT22;4867;48.112;11.622;2022-12-18T03:17:06;-3.30;99.90
9658;DHT22;4867;48.112;11.622;2022-12-18T03:19:35;-3.30;99.90
9658;DHT22;4867;48.112;11.622;2022-12-18T03:22:06;-3.40;99.90
9658;DHT22;4867;48.112;11.622;2022-12-18T03:24:45;-3.40;99.90
9658;DHT22;4867;48.112;11.622;2022-12-18T03:27:15;-3.40;99.90
9658;DHT22;4867;48.112;11.622;2022-12-18T03:29:48;-3.40;99.90
9658;DHT22;4867;48.112;11.622;2022-12-18T03:32:31;-3.40;99.90
9658;DHT22;4867;48.112;11.622;2022-12-18T03:35:04;-3.40;99.90
9658;DHT22;4867;48.112;11.622;2022-12-18T03:37:36;-3.40;99.90
9658;DHT22;4867;48.112;11.622;2022-12-18T03:40:05;-3.40;99.90
9658;DHT22;4867;48.112;11.622;2022-12-18T03:42:39;-3.40;99.90
9658;DHT22;4867;48.112;11.622;2022-12-18T03:45:42;-3.40;99.90
9658;DHT22;4867;48.112;11.622;2022-12-18T03:48:21;-3.40;99.90
9658;DHT22;4867;48.112;11.622;2022-12-18T03:56:25;-3.30;99.90
9658;DHT22;4867;48.112;11.622;2022-12-18T03:58:55;-3.30;99.90
9658;DHT22;4867;48.112;11.622;2022-12-18T04:01:32;-3.30;99.90
9658;DHT22;4867;48.112;11.622;2022-12-18T04:04:02;-3.30;99.90
9658;DHT22;4867;48.112;11.622;2022-12-18T04:06:34;-3.20;99.90
9658;DHT22;4867;48.112;11.622;2022-12-18T04:09:02;-3.20;99.90
9658;DHT22;4867;48.112;11.622;2022-12-18T04:11:33;-3.20;99.90
9658;DHT22;4867;48.112;11.622;2022-12-18T04:14:03;-3.20;99.90
9658;DHT22;4867;48.112;11.622;2022-12-18T04:16:34;-3.20;99.90
9658;DHT22;4867;48.112;11.622;2022-12-18T04:19:03;-3.20;99.90
9658;DHT22;4867;48.112;11.622;2022-12-18T04:21:37;-3.20;99.90
9658;DHT22;4867;48.112;11.622;2022-12-18T04:24:05;-3.20;99.90
9658;DHT22;4867;48.112;11.622;2022-12-18T04:26:35;-3.20;99.90
9658;DHT22;4867;48.112;11.622;2022-12-18T04:29:15;-3.30;99.90
9658;DHT22;4867;48.112;11.622;2022-12-18T04:31:43;-3.30;99.90
9658;DHT22;4867;48.112;11.622;2022-12-18T04:34:11;-3.40;99.90
9658;DHT22;4867;48.112;11.622;2022-12-18T04:36:44;-3.40;99.90
9658;DHT22;4867;48.112;11.622;2022-12-18T04:39:13;-3.40;99.90
9658;DHT22;4867;48.112;11.622;2022-12-18T04:41:41;-3.30;99.90
9658;DHT22;4867;48.112;11.622;2022-12-18T04:44:10;-3.30;99.90
9658;DHT22;4867;48.112;11.622;2022-12-18T04:46:37;-3.40;99.90
9658;DHT22;4867;48.112;11.622;2022-12-18T04:49:04;-3.50;99.90
9658;DHT22;4867;48.112;11.622;2022-12-18T04:51:31;-3.50;99.90
9658;DHT22;4867;48.112;11.622;2022-12-18T04:53:59;-3.50;99.90
9658;DHT22;4867;48.112;11.622;2022-12-18T04:56:27;-3.50;99.90
9658;DHT22;4867;48.112;11.622;2022-12-18T04:58:54;-3.40;99.90
9658;DHT22;4867;48.112;11.622;2022-12-18T05:01:21;-3.50;99.90
9658;DHT22;4867;48.112;11.622;2022-12-18T05:03:50;-3.50;99.90
9658;DHT22;4867;48.112;11.622;2022-12-18T05:06:17;-3.40;99.90
9658;DHT22;4867;48.112;11.622;2022-12-18T05:08:45;-3.30;99.90
9658;DHT22;4867;48.112;11.622;2022-12-18T05:11:14;-3.30;99.90
9658;DHT22;4867;48.112;11.622;2022-12-18T05:13:44;-3.30;99.90
9658;DHT22;4867;48.112;11.622;2022-12-18T05:16:12;-3.40;99.90
9658;DHT22;4867;48.112;11.622;2022-12-18T05:18:39;-3.40;99.90
9658;DHT22;4867;48.112;11.622;2022-12-18T05:21:07;-3.50;99.90
9658;DHT22;4867;48.112;11.622;2022-12-18T05:23:34;-3.50;99.90
9658;DHT22;4867;48.112;11.622;2022-12-18T05:26:04;-3.50;99.90
9658;DHT22;4867;48.112;11.622;2022-12-18T05:28:33;-3.40;99.90
9658;DHT22;4867;48.112;11.622;2022-12-18T05:31:03;-3.30;99.90
9658;DHT22;4867;48.112;11.622;2022-12-18T05:33:33;-3.30;99.90
9658;DHT22;4867;48.112;11.622;2022-12-18T05:36:01;-3.30;99.90
9658;DHT22;4867;48.112;11.622;2022-12-18T05:38:30;-3.30;99.90
9658;DHT22;4867;48.112;11.622;2022-12-18T05:40:58;-3.30;99.90
9658;DHT22;4867;48.112;11.622;2022-12-18T05:43:26;-3.30;99.90
9658;DHT22;4867;48.112;11.622;2022-12-18T05:45:54;-3.40;99.90
9658;DHT22;4867;48.112;11.622;2022-12-18T05:48:22;-3.40;99.90
9658;DHT22;4867;48.112;11.622;2022-12-18T05:50:50;-3.50;99.90
9658;DHT22;4867;48.112;11.622;2022-12-18T05:53:20;-3.50;99.90
9658;DHT22;4867;48.112;11.622;2022-12-18T05:55:47;-3.50;99.90
9658;DHT22;4867;48.112;11.622;2022-12-18T05:58:15;-3.50;99.90
9658;DHT22;4867;48.112;11.622;2022-12-18T06:00:44;-3.60;99.90
9658;DHT22;4867;48.112;11.622;2022-12-18T06:03:13;-3.50;99.90
9658;DHT22;4867;48.112;11.622;2022-12-18T06:05:43;-3.60;99.90
9658;DHT22;4867;48.112;11.622;2022-12-18T06:08:12;-3.50;99.90
9658;DHT22;4867;48.112;11.622;2022-12-18T06:10:40;-3.50;99.90
9658;DHT22;4867;48.112;11.622;2022-12-18T06:13:08;-3.40;99.90
9658;DHT22;4867;48.112;11.622;2022-12-18T06:15:37;-3.40;99.90
9658;DHT22;4867;48.112;11.622;2022-12-18T06:18:04;-3.40;99.90
9658;DHT22;4867;48.112;11.622;2022-12-18T06:20:31;-3.40;99.90
9658;DHT22;4867;48.112;11.622;2022-12-18T06:23:00;-3.40;99.90
9658;DHT22;4867;48.112;11.622;2022-12-18T06:25:27;-3.50;99.90
9658;DHT22;4867;48.112;11.622;2022-12-18T06:27:54;-3.60;99.90
9658;DHT22;4867;48.112;11.622;2022-12-18T06:30:22;-3.70;99.90
9658;DHT22;4867;48.112;11.622;2022-12-18T06:32:49;-3.70;99.90
9658;DHT22;4867;48.112;11.622;2022-12-18T06:35:23;-3.70;99.90
9658;DHT22;4867;48.112;11.622;2022-12-18T06:37:50;-3.70;99.90
9658;DHT22;4867;48.112;11.622;2022-12-18T06:40:18;-3.70;99.90
9658;DHT22;4867;48.112;11.622;2022-12-18T06:42:45;-3.60;99.90
9658;DHT22;4867;48.112;11.622;2022-12-18T06:45:13;-3.60;99.90
9658;DHT22;4867;48.112;11.622;2022-12-18T06:47:40;-3.60;99.90
9658;DHT22;4867;48.112;11.622;2022-12-18T06:50:07;-3.60;99.90
9658;DHT22;4867;48.112;11.622;2022-12-18T06:52:34;-3.60;99.90
9658;DHT22;4867;48.112;11.622;2022-12-18T06:55:02;-3.60;99.90
9658;DHT22;4867;48.112;11.622;2022-12-18T06:57:29;-3.70;99.90
9658;DHT22;4867;48.112;11.622;2022-12-18T06:59:56;-3.70;99.90
9658;DHT22;4867;48.112;11.622;2022-12-18T07:02:23;-3.70;99.90
9658;DHT22;4867;48.112;11.622;2022-12-18T07:04:51;-3.70;99.90
9658;DHT22;4867;48.112;11.622;2022-12-18T07:07:18;-3.70;99.90
9658;DHT22;4867;48.112;11.622;2022-12-18T07:09:45;-3.80;99.90
9658;DHT22;4867;48.112;11.622;2022-12-18T07:12:13;-3.70;99.90
9658;DHT22;4867;48.112;11.622;2022-12-18T07:14:40;-3.60;99.90
9658;DHT22;4867;48.112;11.622;2022-12-18T07:17:07;-3.60;99.90
9658;DHT22;4867;48.112;11.622;2022-12-18T07:19:34;-3.60;99.90
9658;DHT22;4867;48.112;11.622;2022-12-18T07:22:02;-3.60;99.90
9658;DHT22;4867;48.112;11.622;2022-12-18T07:24:31;-3.60;99.90
9658;DHT22;4867;48.112;11.622;2022-12-18T07:26:59;-3.60;99.90
9658;DHT22;4867;48.112;11.622;2022-12-18T07:29:26;-3.60;99.90
9658;DHT22;4867;48.112;11.622;2022-12-18T07:31:53;-3.60;99.90
9658;DHT22;4867;48.112;11.622;2022-12-18T07:34:20;-3.60;99.90
9658;DHT22;4867;48.112;11.622;2022-12-18T07:36:48;-3.50;99.90
9658;DHT22;4867;48.112;11.622;2022-12-18T07:39:15;-3.50;99.90
9658;DHT22;4867;48.112;11.622;2022-12-18T07:41:42;-3.50;99.90
9658;DHT22;4867;48.112;11.622;2022-12-18T07:44:15;-3.50;99.90
9658;DHT22;4867;48.112;11.622;2022-12-18T07:46:42;-3.60;99.90
9658;DHT22;4867;48.112;11.622;2022-12-18T07:49:10;-3.60;99.90
9658;DHT22;4867;48.112;11.622;2022-12-18T07:51:37;-3.50;99.90
9658;DHT22;4867;48.112;11.622;2022-12-18T07:54:04;-3.50;99.90
9658;DHT22;4867;48.112;11.622;2022-12-18T07:56:31;-3.60;99.90
9658;DHT22;4867;48.112;11.622;2022-12-18T07:58:59;-3.70;99.90
9658;DHT22;4867;48.112;11.622;2022-12-18T08:01:29;-3.70;99.90
9658;DHT22;4867;48.112;11.622;2022-12-18T08:03:57;-3.70;99.90
9658;DHT22;4867;48.112;11.622;2022-12-18T08:06:25;-3.60;99.90
9658;DHT22;4867;48.112;11.622;2022-12-18T08:08:53;-3.50;99.90
9658;DHT22;4867;48.112;11.622;2022-12-18T08:11:22;-3.50;99.90
9658;DHT22;4867;48.112;11.622;2022-12-18T08:13:50;-3.50;99.90
9658;DHT22;4867;48.112;11.622;2022-12-18T08:16:17;-3.50;99.90
9658;DHT22;4867;48.112;11.622;2022-12-18T08:18:45;-3.60;99.90
9658;DHT22;4867;48.112;11.622;2022-12-18T08:21:18;-3.60;99.90
9658;DHT22;4867;48.112;11.622;2022-12-18T08:23:47;-3.60;99.90
9658;DHT22;4867;48.112;11.622;2022-12-18T08:26:17;-3.50;99.90
9658;DHT22;4867;48.112;11.622;2022-12-18T08:28:45;-3.50;99.90
9658;DHT22;4867;48.112;11.622;2022-12-18T08:31:12;-3.40;99.90
9658;DHT22;4867;48.112;11.622;2022-12-18T08:33:40;-3.40;99.90
9658;DHT22;4867;48.112;11.622;2022-12-18T08:36:09;-3.30;99.90
9658;DHT22;4867;48.112;11.622;2022-12-18T08:38:37;-3.30;99.90
9658;DHT22;4867;48.112;11.622;2022-12-18T08:41:09;-3.30;99.90
9658;DHT22;4867;48.112;11.622;2022-12-18T08:43:36;-3.40;99.90
9658;DHT22;4867;48.112;11.622;2022-12-18T08:46:25;-3.30;99.90
9658;DHT22;4867;48.112;11.622;2022-12-18T08:48:53;-3.30;99.90
9658;DHT22;4867;48.112;11.622;2022-12-18T08:51:22;-3.30;99.90
9658;DHT22;4867;48.112;11.622;2022-12-18T08:53:49;-3.30;99.90
9658;DHT22;4867;48.112;11.622;2022-12-18T08:56:16;-3.10;99.90
9658;DHT22;4867;48.112;11.622;2022-12-18T08:58:44;-3.20;99.90
9658;DHT22;4867;48.112;11.622;2022-12-18T09:01:12;-3.10;99.90
9658;DHT22;4867;48.112;11.622;2022-12-18T09:03:40;-3.10;99.90
9658;DHT22;4867;48.112;11.622;2022-12-18T09:06:08;-3.00;99.90
9658;DHT22;4867;48.112;11.622;2022-12-18T09:08:36;-3.00;99.90
9658;DHT22;4867;48.112;11.622;2022-12-18T09:11:19;-2.90;99.90
9658;DHT22;4867;48.112;11.622;2022-12-18T09:13:46;-2.90;99.90
9658;DHT22;4867;48.112;11.622;2022-12-18T09:16:13;-2.90;99.90
9658;DHT22;4867;48.112;11.622;2022-12-18T09:18:41;-2.90;99.90
9658;DHT22;4867;48.112;11.622;2022-12-18T09:21:14;-2.90;99.90
9658;DHT22;4867;48.112;11.622;2022-12-18T09:23:42;-2.90;99.90
9658;DHT22;4867;48.112;11.622;2022-12-18T09:26:10;-2.90;99.90
9658;DHT22;4867;48.112;11.622;2022-12-18T09:28:37;-2.90;99.90
9658;DHT22;4867;48.112;11.622;2022-12-18T09:31:07;-2.80;99.90
9658;DHT22;4867;48.112;11.622;2022-12-18T09:33:35;-2.90;99.90
9658;DHT22;4867;48.112;11.622;2022-12-18T09:36:06;-2.90;99.90
9658;DHT22;4867;48.112;11.622;2022-12-18T09:38:34;-2.80;99.90
9658;DHT22;4867;48.112;11.622;2022-12-18T09:43:52;-2.80;99.90
9658;DHT22;4867;48.112;11.622;2022-12-18T09:46:31;-2.80;99.90
9658;DHT22;4867;48.112;11.622;2022-12-18T09:49:04;-2.80;99.90
9658;DHT22;4867;48.112;11.622;2022-12-18T09:51:41;-2.70;99.90
9658;DHT22;4867;48.112;11.622;2022-12-18T09:54:15;-2.70;99.90
9658;DHT22;4867;48.112;11.622;2022-12-18T09:56:43;-2.70;99.90
9658;DHT22;4867;48.112;11.622;2022-12-18T09:59:30;-2.70;99.90
9658;DHT22;4867;48.112;11.622;2022-12-18T10:02:00;-2.80;99.90
9658;DHT22;4867;48.112;11.622;2022-12-18T10:04:32;-2.80;99.90
9658;DHT22;4867;48.112;11.622;2022-12-18T10:13:07;-2.70;99.90
9658;DHT22;4867;48.112;11.622;2022-12-18T10:15:44;-2.60;99.90
9658;DHT22;4867;48.112;11.622;2022-12-18T10:21:11;-2.80;99.90
9658;DHT22;4867;48.112;11.622;2022-12-18T10:23:45;-2.90;99.90
9658;DHT22;4867;48.112;11.622;2022-12-18T10:26:17;-2.90;99.90
9658;DHT22;4867;48.112;11.622;2022-12-18T10:28:45;-2.80;99.90
9658;DHT22;4867;48.112;11.622;2022-12-18T10:31:16;-2.70;99.90
9658;DHT22;4867;48.112;11.622;2022-12-18T10:33:45;-2.60;99.90
9658;DHT22;4867;48.112;11.622;2022-12-18T10:36:12;-2.50;99.90
9658;DHT22;4867;48.112;11.622;2022-12-18T10:38:40;-2.50;99.90
9658;DHT22;4867;48.112;11.622;2022-12-18T10:44:14;-2.60;99.90
9658;DHT22;4867;48.112;11.622;2022-12-18T10:46:44;-2.60;99.90
9658;DHT22;4867;48.112;11.622;2022-12-18T10:49:40;-2.80;99.90
9658;DHT22;4867;48.112;11.622;2022-12-18T10:52:18;-2.70;99.90
9658;DHT22;4867;48.112;11.622;2022-12-18T10:54:52;-2.70;99.90
9658;DHT22;4867;48.112;11.622;2022-12-18T10:59:55;-2.50;99.90
9658;DHT22;4867;48.112;11.622;2022-12-18T11:04:59;-2.50;99.90
9658;DHT22;4867;48.112;11.622;2022-12-18T11:07:47;-2.40;99.90
9658;DHT22;4867;48.112;11.622;2022-12-18T11:10:21;-2.30;99.90
9658;DHT22;4867;48.112;11.622;2022-12-18T11:12:48;-2.30;99.90
9658;DHT22;4867;48.112;11.622;2022-12-18T11:15:21;-2.20;99.90
9658;DHT22;4867;48.112;11.622;2022-12-18T11:17:49;-2.20;99.90
9658;DHT22;4867;48.112;11.622;2022-12-18T11:20:33;-2.30;99.90
9658;DHT22;4867;48.112;11.622;2022-12-18T11:23:04;-2.30;99.90
9658;DHT22;4867;48.112;11.622;2022-12-18T11:25:34;-2.30;99.90
9658;DHT22;4867;48.112;11.622;2022-12-18T11:31:25;-2.20;99.90
9658;DHT22;4867;48.112;11.622;2022-12-18T11:33:57;-2.10;99.90
9658;DHT22;4867;48.112;11.622;2022-12-18T11:36:46;-2.10;99.90
9658;DHT22;4867;48.112;11.622;2022-12-18T11:39:42;-2.10;99.90
9658;DHT22;4867;48.112;11.622;2022-12-18T11:42:42;-2.10;99.90
9658;DHT22;4867;48.112;11.622;2022-12-18T11:53:04;-2.00;99.90
9658;DHT22;4867;48.112;11.622;2022-12-18T11:58:51;-2.10;99.90
9658;DHT22;4867;48.112;11.622;2022-12-18T12:01:33;-2.20;99.90
9658;DHT22;4867;48.112;11.622;2022-12-18T12:12:52;-2.20;99.90
9658;DHT22;4867;48.112;11.622;2022-12-18T12:18:23;-2.20;99.90
9658;DHT22;4867;48.112;11.622;2022-12-18T12:30:00;-2.20;99.90
9658;DHT22;4867;48.112;11.622;2022-12-18T12:40:31;-2.40;99.90
9658;DHT22;4867;48.112;11.622;2022-12-18T12:43:42;-2.60;99.90
9658;DHT22;4867;48.112;11.622;2022-12-18T12:46:19;-2.70;99.90
9658;DHT22;4867;48.112;11.622;2022-12-18T12:48:56;-2.60;99.90
9658;DHT22;4867;48.112;11.622;2022-12-18T12:51:36;-2.70;99.90
9658;DHT22;4867;48.112;11.622;2022-12-18T12:54:08;-2.70;99.90
9658;DHT22;4867;48.112;11.622;2022-12-18T12:56:57;-2.60;99.90
9658;DHT22;4867;48.112;11.622;2022-12-18T12:59:47;-2.50;99.90
9658;DHT22;4867;48.112;11.622;2022-12-18T13:05:37;-2.40;99.90
9658;DHT22;4867;48.112;11.622;2022-12-18T13:08:06;-2.30;99.90
9658;DHT22;4867;48.112;11.622;2022-12-18T13:10:36;-2.30;99.90
9658;DHT22;4867;48.112;11.622;2022-12-18T13:13:10;-2.30;99.90
9658;DHT22;4867;48.112;11.622;2022-12-18T13:23:35;-2.30;99.90
9658;DHT22;4867;48.112;11.622;2022-12-18T13:37:42;-2.20;99.90
9658;DHT22;4867;48.112;11.622;2022-12-18T13:39:43;-2.20;99.90
9658;DHT22;4867;48.112;11.622;2022-12-18T13:45:02;-2.30;99.90
9658;DHT22;4867;48.112;11.622;2022-12-18T13:47:49;-2.30;99.90
9658;DHT22;4867;48.112;11.622;2022-12-18T13:50:23;-2.30;99.90
9658;DHT22;4867;48.112;11.622;2022-12-18T13:52:58;-2.40;99.90
9658;DHT22;4867;48.112;11.622;2022-12-18T13:55:26;-2.40;99.90
9658;DHT22;4867;48.112;11.622;2022-12-18T13:58:04;-2.40;99.90
9658;DHT22;4867;48.112;11.622;2022-12-18T14:00:31;-2.50;99.90
9658;DHT22;4867;48.112;11.622;2022-12-18T14:02:59;-2.60;99.90
9658;DHT22;4867;48.112;11.622;2022-12-18T14:05:29;-2.60;99.90
9658;DHT22;4867;48.112;11.622;2022-12-18T14:08:10;-2.60;99.90
9658;DHT22;4867;48.112;11.622;2022-12-18T14:10:47;-2.70;99.90
9658;DHT22;4867;48.112;11.622;2022-12-18T14:13:37;-2.70;99.90
9658;DHT22;4867;48.112;11.622;2022-12-18T14:16:06;-2.70;99.90
9658;DHT22;4867;48.112;11.622;2022-12-18T14:18:44;-2.80;99.90
9658;DHT22;4867;48.112;11.622;2022-12-18T14:21:27;-2.70;99.90
9658;DHT22;4867;48.112;11.622;2022-12-18T14:26:47;-2.80;99.90
9658;DHT22;4867;48.112;11.622;2022-12-18T14:29:30;-2.90;99.90
9658;DHT22;4867;48.112;11.622;2022-12-18T14:32:11;-2.90;99.90
9658;DHT22;4867;48.112;11.622;2022-12-18T14:34:49;-2.90;99.90
9658;DHT22;4867;48.112;11.622;2022-12-18T14:37:22;-2.90;99.90
9658;DHT22;4867;48.112;11.622;2022-12-18T14:40:00;-3.00;99.90
9658;DHT22;4867;48.112;11.622;2022-12-18T14:42:36;-2.90;99.90
9658;DHT22;4867;48.112;11.622;2022-12-18T14:45:36;-2.90;99.90
9658;DHT22;4867;48.112;11.622;2022-12-18T14:48:21;-2.90;99.90
9658;DHT22;4867;48.112;11.622;2022-12-18T14:53:44;-3.00;99.90
9658;DHT22;4867;48.112;11.622;2022-12-18T14:56:28;-3.00;99.90
9658;DHT22;4867;48.112;11.622;2022-12-18T14:59:02;-3.00;99.90
9658;DHT22;4867;48.112;11.622;2022-12-18T15:04:04;-3.30;99.90
9658;DHT22;4867;48.112;11.622;2022-12-18T15:06:37;-3.40;99.90
9658;DHT22;4867;48.112;11.622;2022-12-18T15:09:23;-3.40;99.90
9658;DHT22;4867;48.112;11.622;2022-12-18T15:11:56;-3.50;99.90
9658;DHT22;4867;48.112;11.622;2022-12-18T15:14:53;-3.60;99.90
9658;DHT22;4867;48.112;11.622;2022-12-18T15:17:22;-3.60;99.90
9658;DHT22;4867;48.112;11.622;2022-12-18T15:20:02;-3.70;99.90
9658;DHT22;4867;48.112;11.622;2022-12-18T15:22:34;-3.70;99.90
9658;DHT22;4867;48.112;11.622;2022-12-18T15:25:03;-3.80;99.90
9658;DHT22;4867;48.112;11.622;2022-12-18T15:27:35;-3.80;99.90
9658;DHT22;4867;48.112;11.622;2022-12-18T15:32:37;-3.70;99.90
9658;DHT22;4867;48.112;11.622;2022-12-18T15:37:35;-3.70;99.90
9658;DHT22;4867;48.112;11.622;2022-12-18T15:40:03;-3.60;99.90
9658;DHT22;4867;48.112;11.622;2022-12-18T15:42:30;-3.50;99.90
9658;DHT22;4867;48.112;11.622;2022-12-18T15:45:16;-3.50;99.90
9658;DHT22;4867;48.112;11.622;2022-12-18T15:47:45;-3.50;99.90
9658;DHT22;4867;48.112;11.622;2022-12-18T15:50:12;-3.50;99.90
9658;DHT22;4867;48.112;11.622;2022-12-18T15:52:42;-3.50;99.90
9658;DHT22;4867;48.112;11.622;2022-12-18T15:55:20;-3.60;99.90
9658;DHT22;4867;48.112;11.622;2022-12-18T15:58:09;-3.60;99.90
9658;DHT22;4867;48.112;11.622;2022-12-18T16:00:38;-3.60;99.90
9658;DHT22;4867;48.112;11.622;2022-12-18T16:03:06;-3.60;99.90
9658;DHT22;4867;48.112;11.622;2022-12-18T16:05:35;-3.70;99.90
9658;DHT22;4867;48.112;11.622;2022-12-18T16:08:02;-3.70;99.90
9658;DHT22;4867;48.112;11.622;2022-12-18T16:10:30;-3.70;99.90
9658;DHT22;4867;48.112;11.622;2022-12-18T16:12:57;-3.70;99.90
9658;DHT22;4867;48.112;11.622;2022-12-18T16:15:24;-3.80;99.90
9658;DHT22;4867;48.112;11.622;2022-12-18T16:17:51;-3.90;99.90
9658;DHT22;4867;48.112;11.622;2022-12-18T16:20:21;-3.90;99.90
9658;DHT22;4867;48.112;11.622;2022-12-18T16:22:49;-4.00;99.90
9658;DHT22;4867;48.112;11.622;2022-12-18T16:25:17;-4.00;99.90
9658;DHT22;4867;48.112;11.622;2022-12-18T16:27:45;-4.00;99.90
9658;DHT22;4867;48.112;11.622;2022-12-18T16:30:20;-4.00;99.90
9658;DHT22;4867;48.112;11.622;2022-12-18T16:32:47;-3.90;99.90
9658;DHT22;4867;48.112;11.622;2022-12-18T16:35:15;-4.00;99.90
9658;DHT22;4867;48.112;11.622;2022-12-18T16:37:43;-3.90;99.90
9658;DHT22;4867;48.112;11.622;2022-12-18T16:40:13;-3.90;99.90
9658;DHT22;4867;48.112;11.622;2022-12-18T16:42:42;-3.80;99.90
9658;DHT22;4867;48.112;11.622;2022-12-18T16:45:13;-3.70;99.90
9658;DHT22;4867;48.112;11.622;2022-12-18T16:47:41;-3.70;99.90
9658;DHT22;4867;48.112;11.622;2022-12-18T16:50:09;-3.70;99.90
9658;DHT22;4867;48.112;11.622;2022-12-18T16:52:36;-3.70;99.90
9658;DHT22;4867;48.112;11.622;2022-12-18T16:55:04;-3.70;99.90
9658;DHT22;4867;48.112;11.622;2022-12-18T16:57:32;-3.70;99.90
9658;DHT22;4867;48.112;11.622;2022-12-18T16:59:59;-3.70;99.90
9658;DHT22;4867;48.112;11.622;2022-12-18T17:02:32;-3.60;99.90
9658;DHT22;4867;48.112;11.622;2022-12-18T17:05:00;-3.70;99.90
9658;DHT22;4867;48.112;11.622;2022-12-18T17:07:27;-3.70;99.90
9658;DHT22;4867;48.112;11.622;2022-12-18T17:09:55;-3.70;99.90
9658;DHT22;4867;48.112;11.622;2022-12-18T17:12:22;-3.60;99.90
9658;DHT22;4867;48.112;11.622;2022-12-18T17:14:49;-3.60;99.90
9658;DHT22;4867;48.112;11.622;2022-12-18T17:17:17;-3.60;99.90
9658;DHT22;4867;48.112;11.622;2022-12-18T17:19:48;-3.70;99.90
9658;DHT22;4867;48.112;11.622;2022-12-18T17:22:15;-3.70;99.90
9658;DHT22;4867;48.112;11.622;2022-12-18T17:24:42;-3.70;99.90
9658;DHT22;4867;48.112;11.622;2022-12-18T17:27:09;-3.60;99.90
9658;DHT22;4867;48.112;11.622;2022-12-18T17:29:36;-3.60;99.90
9658;DHT22;4867;48.112;11.622;2022-12-18T17:32:12;-3.60;99.90
9658;DHT22;4867;48.112;11.622;2022-12-18T17:34:40;-3.60;99.90
9658;DHT22;4867;48.112;11.622;2022-12-18T17:37:07;-3.60;99.90
9658;DHT22;4867;48.112;11.622;2022-12-18T17:39:35;-3.60;99.90
9658;DHT22;4867;48.112;11.622;2022-12-18T17:42:02;-3.50;99.90
9658;DHT22;4867;48.112;11.622;2022-12-18T17:44:31;-3.50;99.90
9658;DHT22;4867;48.112;11.622;2022-12-18T17:47:00;-3.50;99.90
9658;DHT22;4867;48.112;11.622;2022-12-18T17:49:28;-3.50;99.90
9658;DHT22;4867;48.112;11.622;2022-12-18T17:51:55;-3.50;99.90
9658;DHT22;4867;48.112;11.622;2022-12-18T17:54:22;-3.50;99.90
9658;DHT22;4867;48.112;11.622;2022-12-18T17:56:49;-3.50;99.90
9658;DHT22;4867;48.112;11.622;2022-12-18T17:59:17;-3.60;99.90
9658;DHT22;4867;48.112;11.622;2022-12-18T18:01:45;-3.50;99.90
9658;DHT22;4867;48.112;11.622;2022-12-18T18:04:12;-3.60;99.90
9658;DHT22;4867;48.112;11.622;2022-12-18T18:06:40;-3.60;99.90
9658;DHT22;4867;48.112;11.622;2022-12-18T18:09:07;-3.60;99.90
9658;DHT22;4867;48.112;11.622;2022-12-18T18:11:44;-3.70;99.90
9658;DHT22;4867;48.112;11.622;2022-12-18T18:14:30;-3.80;99.90
9658;DHT22;4867;48.112;11.622;2022-12-18T18:16:57;-3.80;99.90
9658;DHT22;4867;48.112;11.622;2022-12-18T18:19:31;-3.70;99.90